Quick Links (Output Below):   Max & Min Temps   /   Climate Reports   /   Zone Forecasts
River Forecasts   /   Forestry Forecasts   /   Aviation Forecasts   /   Radars   /   Features

Terminal Aerodrome Forecast (Fort Smith)

Pick a Site:
Arkadelphia | El Dorado | Fayetteville | Fort Smith | Harrison | Highfill | Hot Springs | Jonesboro
Little Rock | Monticello | Mountain Home | Pine Bluff | Texarkana
 Forecast 

KFSM 011122Z 0112/0212 20006KT P6SM SCT150
     FM011500 20012KT P6SM SCT050 SCT250
     FM020200 12005KT P6SM BKN250 PROB30 0206/0212 6SM -TSRA
      BKN040CB=


 Latest METARs (Observations) 
How to Decode METARs
11Z KFSM 011053Z 20006KT 10SM CLR 26/19 A2989 RMK AO2 SLP117
         T02560194
         
10Z KFSM 010953Z AUTO 19006KT 10SM CLR 26/21 A2988 RMK AO2 SLP110
         T02560206
         
09Z KFSM 010853Z AUTO 16005KT 10SM CLR 25/21 A2987 RMK AO2 SLP110
         T02500211 56003
         
08Z KFSM 010753Z AUTO 13003KT 10SM CLR 25/22 A2987 RMK AO2 SLP110
         T02500222
         
07Z KFSM 010653Z AUTO 16005KT 10SM CLR 26/22 A2987 RMK AO2 SLP110
         T02560222
         
06Z KFSM 010553Z AUTO 00000KT 10SM CLR 26/22 A2988 RMK AO2 SLP113
         T02610222 10317 20256 403440222 53000
         
05Z KFSM 010453Z AUTO 14003KT 10SM CLR 27/22 A2988 RMK AO2 SLP113
         T02670222
         
04Z KFSM 010353Z AUTO 00000KT 10SM CLR 27/22 A2988 RMK AO2 SLP112
         T02720222
         
03Z KFSM 010253Z 14004KT 10SM CLR 28/22 A2988 RMK AO2 SLP113 T02780222
         53004
         
02Z KFSM 010153Z 16005KT 10SM CLR 28/22 A2987 RMK AO2 SLP107
         T02830217
         
***** Today's Observations (Above) *****


Back to Main Page
http://www.srh.noaa.gov/lzk/qfcst.php

USA.gov is the U.S. government's official web portal to all federal, state and local government web resources and services.